createdAt,value
2023-03-11T00:00:18.643Z,46.98
2023-03-11T00:02:46.873Z,47.14
2023-03-11T00:05:18.029Z,47.19
2023-03-11T00:07:45.044Z,47.18
2023-03-11T00:10:18.134Z,47.20
2023-03-11T00:12:44.907Z,47.31
2023-03-11T00:15:13.838Z,47.45
2023-03-11T00:17:40.861Z,47.42
2023-03-11T00:20:15.336Z,47.44
2023-03-11T00:22:42.077Z,47.27
2023-03-11T00:25:11.441Z,47.39
2023-03-11T00:27:38.338Z,47.31
2023-03-11T00:30:06.303Z,47.49
2023-03-11T00:32:33.216Z,47.27
2023-03-11T00:35:01.583Z,47.39
2023-03-11T00:37:28.419Z,47.54
2023-03-11T00:39:55.190Z,47.37
2023-03-11T00:42:22.293Z,47.38
2023-03-11T00:44:49.103Z,47.43
2023-03-11T00:47:15.903Z,47.40
2023-03-11T00:49:43.109Z,47.51
2023-03-11T00:52:09.896Z,47.56
2023-03-11T00:54:36.641Z,47.71
2023-03-11T00:57:03.682Z,47.73
2023-03-11T00:59:30.529Z,47.96
2023-03-11T01:01:58.242Z,47.93
2023-03-11T01:04:25.126Z,47.96
2023-03-11T01:06:51.910Z,48.08
2023-03-11T01:09:18.946Z,47.95
2023-03-11T01:11:46.019Z,48.23
2023-03-11T01:14:13.072Z,48.19
2023-03-11T01:16:39.926Z,48.38
2023-03-11T01:19:06.687Z,48.36
2023-03-11T01:21:33.521Z,48.48
2023-03-11T01:24:00.267Z,48.56
2023-03-11T01:26:27.112Z,48.52
2023-03-11T01:28:55.906Z,48.65
2023-03-11T01:31:22.840Z,48.78
2023-03-11T01:33:49.662Z,48.79
2023-03-11T01:36:16.619Z,48.65
2023-03-11T01:38:43.366Z,48.91
2023-03-11T01:41:12.128Z,49.22
2023-03-11T01:43:45.097Z,49.09
2023-03-11T01:46:23.460Z,48.98
2023-03-11T01:49:12.334Z,49.04
2023-03-11T01:51:44.701Z,49.32
2023-03-11T01:54:16.810Z,49.19
2023-03-11T01:56:45.580Z,49.30
2023-03-11T01:59:15.938Z,49.31
2023-03-11T02:01:56.911Z,49.43
2023-03-11T02:04:23.839Z,49.30
2023-03-11T02:06:53.713Z,49.67
2023-03-11T02:09:24.148Z,49.51
2023-03-11T02:11:51.397Z,49.58
2023-03-11T02:14:18.483Z,49.58
2023-03-11T02:16:45.524Z,49.30
2023-03-11T02:19:33.877Z,49.75
2023-03-11T02:22:01.554Z,49.84
2023-03-11T02:24:54.297Z,49.80
2023-03-11T02:27:22.649Z,49.95
2023-03-11T02:29:51.700Z,50.05
2023-03-11T02:32:20.284Z,50.10
2023-03-11T02:34:47.247Z,50.11
2023-03-11T02:37:16.627Z,49.97
2023-03-11T02:39:51.877Z,50.28
2023-03-11T02:42:21.355Z,49.88
2023-03-11T02:44:57.549Z,50.40
2023-03-11T02:47:25.726Z,50.05
2023-03-11T02:49:54.899Z,49.94
2023-03-11T02:52:22.446Z,49.81
2023-03-11T02:54:49.192Z,49.82
2023-03-11T02:57:15.955Z,49.88
2023-03-11T02:59:42.838Z,49.74
2023-03-11T03:02:10.084Z,49.97
2023-03-11T03:04:38.675Z,49.79
2023-03-11T03:07:05.580Z,50.04
2023-03-11T03:09:33.490Z,50.05
2023-03-11T03:12:00.426Z,49.90
2023-03-11T03:14:28.955Z,50.26
2023-03-11T03:16:56.098Z,49.97
2023-03-11T03:19:22.892Z,50.08
2023-03-11T03:21:49.918Z,50.19
2023-03-11T03:24:16.789Z,50.18
2023-03-11T03:26:43.632Z,50.12
2023-03-11T03:29:11.004Z,50.22
2023-03-11T03:31:38.572Z,50.38
2023-03-11T03:34:05.446Z,50.24
2023-03-11T03:36:32.306Z,50.20
2023-03-11T03:39:03.956Z,50.28
2023-03-11T03:41:34.702Z,50.29
2023-03-11T03:44:02.302Z,50.37
2023-03-11T03:46:30.575Z,50.45
2023-03-11T03:48:59.094Z,50.59
2023-03-11T03:51:27.034Z,50.35
2023-03-11T03:54:08.590Z,50.44
2023-03-11T03:56:35.730Z,50.57
2023-03-11T03:59:02.572Z,50.67
2023-03-11T04:01:36.005Z,50.77
2023-03-11T04:04:02.984Z,50.73
2023-03-11T04:06:29.870Z,50.85
2023-03-11T04:09:04.143Z,50.88
2023-03-11T04:11:33.905Z,50.71
2023-03-11T04:14:02.708Z,50.75
2023-03-11T04:16:31.806Z,51.02
2023-03-11T04:19:05.707Z,50.78
2023-03-11T04:21:33.342Z,50.94
2023-03-11T04:24:00.576Z,50.92
2023-03-11T04:26:31.711Z,50.89
2023-03-11T04:28:58.631Z,51.10
2023-03-11T04:31:27.890Z,51.42
2023-03-11T04:33:54.968Z,51.43
2023-03-11T04:36:21.879Z,51.41
2023-03-11T04:38:49.440Z,51.44
2023-03-11T04:41:16.985Z,51.58
2023-03-11T04:43:45.044Z,51.64
2023-03-11T04:46:11.901Z,51.66
2023-03-11T04:48:40.982Z,51.86
2023-03-11T04:51:09.001Z,51.43
2023-03-11T04:53:36.139Z,51.72
2023-03-11T04:56:03.315Z,51.92
2023-03-11T04:58:30.592Z,51.97
2023-03-11T05:00:57.700Z,51.67
2023-03-11T05:03:24.905Z,51.49
2023-03-11T05:05:56.612Z,51.65
2023-03-11T05:08:24.204Z,51.74
2023-03-11T05:10:52.854Z,51.67
2023-03-11T05:13:21.205Z,51.83
2023-03-11T05:15:48.823Z,51.75
2023-03-11T05:18:16.434Z,51.53
2023-03-11T05:20:43.826Z,51.80
2023-03-11T05:23:12.072Z,51.52
2023-03-11T05:25:39.738Z,51.65
2023-03-11T05:28:07.179Z,51.69
2023-03-11T05:30:38.322Z,51.53
2023-03-11T05:33:05.178Z,51.49
2023-03-11T05:35:32.138Z,51.52
2023-03-11T05:37:59.208Z,51.42
2023-03-11T05:40:28.387Z,51.38
2023-03-11T05:42:55.343Z,51.45
2023-03-11T05:45:22.491Z,51.26
2023-03-11T05:47:52.740Z,51.27
2023-03-11T05:50:20.074Z,51.22
2023-03-11T05:52:48.795Z,51.37
2023-03-11T05:55:16.243Z,51.32
2023-03-11T05:57:45.019Z,51.33
2023-03-11T06:00:12.501Z,51.09
2023-03-11T06:02:46.633Z,51.31
2023-03-11T06:05:18.000Z,51.41
2023-03-11T06:07:47.053Z,51.46
2023-03-11T06:10:14.270Z,51.27
2023-03-11T06:12:41.556Z,51.33
2023-03-11T06:15:38.366Z,51.42
2023-03-11T06:18:05.937Z,51.25
2023-03-11T06:20:34.167Z,51.38
2023-03-11T06:23:00.983Z,51.14
2023-03-11T06:25:27.940Z,50.98
2023-03-11T06:27:55.018Z,51.11
2023-03-11T06:30:24.449Z,51.49
2023-03-11T06:33:09.010Z,51.33
2023-03-11T06:35:35.801Z,51.23
2023-03-11T06:38:02.704Z,51.22
2023-03-11T06:40:29.655Z,51.25
2023-03-11T06:42:56.469Z,51.32
2023-03-11T06:45:25.573Z,51.10
2023-03-11T06:47:53.022Z,51.21
2023-03-11T06:50:23.660Z,51.19
2023-03-11T06:52:51.184Z,51.21
2023-03-11T06:55:18.074Z,51.25
2023-03-11T06:57:45.760Z,51.25
2023-03-11T07:00:14.379Z,51.33
2023-03-11T07:02:46.254Z,51.82
2023-03-11T07:05:15.116Z,51.58
2023-03-11T07:07:42.205Z,51.74
2023-03-11T07:10:10.026Z,51.65
2023-03-11T07:12:37.123Z,51.74
2023-03-11T07:15:04.357Z,51.65
2023-03-11T07:17:33.330Z,52.03
2023-03-11T07:20:00.351Z,51.95
2023-03-11T07:22:27.183Z,52.03
2023-03-11T07:24:53.984Z,52.09
2023-03-11T07:27:21.137Z,52.21
2023-03-11T07:29:48.058Z,52.52
2023-03-11T07:32:15.319Z,52.33
2023-03-11T07:34:42.202Z,52.07
2023-03-11T07:37:09.164Z,52.11
2023-03-11T07:39:35.857Z,52.01
2023-03-11T07:42:05.608Z,51.99
2023-03-11T07:44:36.599Z,51.81
2023-03-11T07:47:04.807Z,51.87
2023-03-11T07:49:32.278Z,51.79
2023-03-11T07:51:59.330Z,51.82
2023-03-11T07:54:26.197Z,51.70
2023-03-11T07:56:52.989Z,51.79
2023-03-11T07:59:19.811Z,51.87
2023-03-11T08:01:47.403Z,51.75
2023-03-11T08:04:16.952Z,51.84
2023-03-11T08:06:46.748Z,51.61
2023-03-11T08:09:14.022Z,51.81
2023-03-11T08:11:41.196Z,51.75
2023-03-11T08:14:08.351Z,51.67
2023-03-11T08:16:35.107Z,51.82
2023-03-11T08:19:02.089Z,52.09
2023-03-11T08:21:32.243Z,51.54
2023-03-11T08:24:01.745Z,51.79
2023-03-11T08:26:29.184Z,51.63
2023-03-11T08:28:57.404Z,51.82
2023-03-11T08:31:27.520Z,51.59
2023-03-11T08:34:00.931Z,51.46
2023-03-11T08:36:27.930Z,51.27
2023-03-11T08:38:54.793Z,51.28
2023-03-11T08:41:21.602Z,51.15
2023-03-11T08:43:48.477Z,51.03
2023-03-11T08:46:25.459Z,50.98
2023-03-11T08:48:53.009Z,51.09
2023-03-11T08:51:20.560Z,51.40
2023-03-11T08:53:47.512Z,53.00
2023-03-11T08:56:14.455Z,52.18
2023-03-11T08:58:41.161Z,51.63
2023-03-11T09:01:09.227Z,51.43
2023-03-11T09:03:36.421Z,50.92
2023-03-11T09:06:06.646Z,50.20
2023-03-11T09:08:34.259Z,49.96
2023-03-11T09:11:01.629Z,49.25
2023-03-11T09:13:29.224Z,49.95
2023-03-11T09:15:56.220Z,48.57
2023-03-11T09:18:23.368Z,48.20
2023-03-11T09:20:50.950Z,47.98
2023-03-11T09:23:18.604Z,47.60
2023-03-11T09:25:45.402Z,47.13
2023-03-11T09:28:12.138Z,46.87
2023-03-11T09:30:38.925Z,46.73
2023-03-11T09:33:05.744Z,46.28
2023-03-11T09:35:33.037Z,46.14
2023-03-11T09:38:00.087Z,45.94
2023-03-11T09:40:32.850Z,45.97
2023-03-11T09:42:59.599Z,46.03
2023-03-11T09:45:33.330Z,45.78
2023-03-11T09:48:11.030Z,45.68
2023-03-11T09:50:50.000Z,45.77
2023-03-11T09:53:19.946Z,46.09
2023-03-11T09:55:50.515Z,47.03
2023-03-11T09:58:35.580Z,49.15
2023-03-11T10:01:04.833Z,46.40
2023-03-11T10:03:38.634Z,46.29
2023-03-11T10:06:15.009Z,46.15
2023-03-11T10:09:06.152Z,45.94
2023-03-11T10:11:48.046Z,45.82
2023-03-11T10:14:52.202Z,45.25
2023-03-11T10:17:58.164Z,45.49
2023-03-11T10:20:34.401Z,45.32
2023-03-11T10:23:09.597Z,45.09
2023-03-11T10:25:49.943Z,45.37
2023-03-11T10:28:19.178Z,45.78
2023-03-11T10:31:01.650Z,45.81
2023-03-11T10:33:38.888Z,45.64
2023-03-11T10:36:11.582Z,45.57
2023-03-11T10:38:46.775Z,45.11
2023-03-11T10:41:22.043Z,45.05
2023-03-11T10:43:54.779Z,45.22
2023-03-11T10:46:27.462Z,44.83
2023-03-11T10:48:54.564Z,45.02
2023-03-11T10:51:34.470Z,44.59
2023-03-11T10:54:03.476Z,43.98
2023-03-11T10:56:42.475Z,43.71
2023-03-11T10:59:51.976Z,43.70
2023-03-11T11:02:29.278Z,43.08
2023-03-11T11:05:17.639Z,42.77
2023-03-11T11:08:07.804Z,42.70
2023-03-11T11:10:36.553Z,41.81
2023-03-11T11:13:18.634Z,41.67
2023-03-11T11:15:56.199Z,41.99
2023-03-11T11:18:44.838Z,41.73
2023-03-11T11:21:33.247Z,41.86
2023-03-11T11:24:18.463Z,41.16
2023-03-11T11:27:16.014Z,40.74
2023-03-11T11:29:43.468Z,40.59
2023-03-11T11:32:19.152Z,39.84
2023-03-11T11:35:05.271Z,39.84
2023-03-11T11:37:39.144Z,39.58
2023-03-11T11:40:15.703Z,40.14
2023-03-11T11:42:49.982Z,40.48
2023-03-11T11:45:34.460Z,40.14
2023-03-11T11:48:23.767Z,39.76
2023-03-11T11:50:58.385Z,39.45
2023-03-11T11:53:39.913Z,39.20
2023-03-11T11:56:06.843Z,39.03
2023-03-11T11:58:41.039Z,38.68
2023-03-11T12:01:15.947Z,39.03
2023-03-11T12:04:03.684Z,39.07
2023-03-11T12:07:04.286Z,39.90
2023-03-11T12:10:19.722Z,39.73
2023-03-11T12:12:57.638Z,39.89
2023-03-11T12:15:38.847Z,39.68
2023-03-11T12:18:21.469Z,39.51
2023-03-11T12:20:53.941Z,39.88
2023-03-11T12:23:39.360Z,39.62
2023-03-11T12:26:22.833Z,39.80
2023-03-11T12:28:50.089Z,40.06
2023-03-11T12:31:17.128Z,39.76
2023-03-11T12:33:51.160Z,38.73
2023-03-11T12:36:32.191Z,39.34
2023-03-11T12:39:01.176Z,39.42
2023-03-11T12:41:41.945Z,39.34
2023-03-11T12:44:29.724Z,39.45
2023-03-11T12:46:59.287Z,39.94
2023-03-11T12:49:38.193Z,40.07
2023-03-11T12:52:04.948Z,39.84
2023-03-11T12:54:41.967Z,39.94
2023-03-11T12:57:18.103Z,39.46
2023-03-11T13:00:23.202Z,40.14
2023-03-11T13:02:55.853Z,40.02
2023-03-11T13:05:40.635Z,39.97
2023-03-11T13:08:15.806Z,39.87
2023-03-11T13:10:47.533Z,40.35
2023-03-11T13:13:33.598Z,40.07
2023-03-11T13:16:15.384Z,39.66
2023-03-11T13:18:43.990Z,39.34
2023-03-11T13:21:31.956Z,39.35
2023-03-11T13:24:25.797Z,39.35
2023-03-11T13:26:58.673Z,39.33
2023-03-11T13:29:37.867Z,39.52
2023-03-11T13:32:21.361Z,39.45
2023-03-11T13:34:53.974Z,39.20
2023-03-11T13:37:59.282Z,38.88
2023-03-11T13:40:34.797Z,38.92
2023-03-11T13:43:04.251Z,38.60
2023-03-11T13:45:36.664Z,38.73
2023-03-11T13:48:08.599Z,38.56
2023-03-11T13:50:56.889Z,38.78
2023-03-11T13:53:32.130Z,39.00
2023-03-11T13:55:58.991Z,39.03
2023-03-11T13:58:28.283Z,39.14
2023-03-11T14:01:02.388Z,39.06
2023-03-11T14:03:36.932Z,39.21
2023-03-11T14:06:08.850Z,39.32
2023-03-11T14:08:37.954Z,39.34
2023-03-11T14:11:17.488Z,39.28
2023-03-11T14:13:46.843Z,39.55
2023-03-11T14:16:35.250Z,39.29
2023-03-11T14:19:04.742Z,39.29
2023-03-11T14:21:34.254Z,39.20
2023-03-11T14:24:03.087Z,39.39
2023-03-11T14:26:34.076Z,39.56
2023-03-11T14:29:11.316Z,39.29
2023-03-11T14:31:40.475Z,39.35
2023-03-11T14:34:10.441Z,39.52
2023-03-11T14:36:44.365Z,39.74
2023-03-11T14:39:25.450Z,39.29
2023-03-11T14:42:22.749Z,39.21
2023-03-11T14:44:55.388Z,39.33
2023-03-11T14:47:29.656Z,39.32
2023-03-11T14:49:57.212Z,38.84
2023-03-11T14:52:41.812Z,38.07
2023-03-11T14:55:16.178Z,37.91
2023-03-11T14:57:48.072Z,37.65
2023-03-11T15:00:50.155Z,37.75
2023-03-11T15:03:29.043Z,37.18
2023-03-11T15:05:59.794Z,37.46
2023-03-11T15:08:30.798Z,36.92
2023-03-11T15:11:28.472Z,36.91
2023-03-11T15:14:16.431Z,37.09
2023-03-11T15:16:43.247Z,37.22
2023-03-11T15:19:28.458Z,37.26
2023-03-11T15:21:59.575Z,37.09
2023-03-11T15:24:29.093Z,36.80
2023-03-11T15:27:01.918Z,36.58
2023-03-11T15:29:30.234Z,36.67
2023-03-11T15:31:57.380Z,36.65
2023-03-11T15:34:26.511Z,36.48
2023-03-11T15:36:55.333Z,36.44
2023-03-11T15:39:31.057Z,36.38
2023-03-11T15:42:05.619Z,36.45
2023-03-11T15:44:40.926Z,36.18
2023-03-11T15:47:17.145Z,36.23
2023-03-11T15:49:44.540Z,36.22
2023-03-11T15:52:12.053Z,36.19
2023-03-11T15:54:39.456Z,36.17
2023-03-11T15:57:11.178Z,36.08
2023-03-11T15:59:41.221Z,36.16
2023-03-11T16:02:21.148Z,39.88
2023-03-11T16:04:48.108Z,40.41
2023-03-11T16:07:14.972Z,41.13
2023-03-11T16:09:41.717Z,41.14
2023-03-11T16:12:19.456Z,42.01
2023-03-11T16:14:48.141Z,42.76
2023-03-11T16:17:15.880Z,43.03
2023-03-11T16:19:43.439Z,44.07
2023-03-11T16:22:25.038Z,45.17
2023-03-11T16:24:53.773Z,45.07
2023-03-11T16:27:20.556Z,44.93
2023-03-11T16:29:47.549Z,44.84
2023-03-11T16:32:14.469Z,44.33
2023-03-11T16:34:41.278Z,44.77
2023-03-11T16:37:09.176Z,44.38
2023-03-11T16:39:36.112Z,44.94
2023-03-11T16:42:02.866Z,45.32
2023-03-11T16:44:29.657Z,45.56
2023-03-11T16:46:56.420Z,45.81
2023-03-11T16:49:23.149Z,45.66
2023-03-11T16:51:49.962Z,45.50
2023-03-11T16:54:16.855Z,44.32
2023-03-11T16:56:43.643Z,44.72
2023-03-11T16:59:10.458Z,44.83
2023-03-11T17:01:38.590Z,45.11
2023-03-11T17:04:08.693Z,44.85
2023-03-11T17:06:35.481Z,45.16
2023-03-11T17:09:02.440Z,45.22
2023-03-11T17:11:30.695Z,50.60
2023-03-11T17:14:10.112Z,47.28
2023-03-11T17:16:42.354Z,46.91
2023-03-11T17:19:09.083Z,46.71
2023-03-11T17:21:35.851Z,47.79
2023-03-11T17:24:02.647Z,47.50
2023-03-11T17:26:31.529Z,48.45
2023-03-11T17:28:59.254Z,48.12
2023-03-11T17:31:26.103Z,48.42
2023-03-11T17:33:52.962Z,48.03
2023-03-11T17:36:20.194Z,48.16
2023-03-11T17:38:48.169Z,48.79
2023-03-11T17:41:17.239Z,49.13
2023-03-11T17:43:44.933Z,49.17
2023-03-11T17:46:17.688Z,49.57
2023-03-11T17:48:46.768Z,50.05
2023-03-11T17:51:16.413Z,50.73
2023-03-11T17:53:45.984Z,50.26
2023-03-11T17:56:15.327Z,50.76
2023-03-11T17:58:42.198Z,50.64
2023-03-11T18:01:20.935Z,50.76
2023-03-11T18:03:48.163Z,51.18
2023-03-11T18:06:15.543Z,51.11
2023-03-11T18:08:42.381Z,51.42
2023-03-11T18:11:11.691Z,50.92
2023-03-11T18:13:39.504Z,50.85
2023-03-11T18:16:09.498Z,52.47
2023-03-11T18:18:37.112Z,51.86
2023-03-11T18:21:12.386Z,51.97
2023-03-11T18:23:39.745Z,52.72
2023-03-11T18:26:08.670Z,52.71
2023-03-11T18:28:36.078Z,52.81
2023-03-11T18:31:14.285Z,53.44
2023-03-11T18:33:42.568Z,53.90
2023-03-11T18:36:20.469Z,52.83
2023-03-11T18:38:48.931Z,53.57
2023-03-11T18:41:15.881Z,54.03
2023-03-11T18:43:42.778Z,53.96
2023-03-11T18:46:12.068Z,53.89
2023-03-11T18:48:39.232Z,53.87
2023-03-11T18:51:07.223Z,54.40
2023-03-11T18:53:36.232Z,54.80
2023-03-11T18:56:10.068Z,54.83
2023-03-11T18:58:36.998Z,55.03
2023-03-11T19:01:09.390Z,55.13
2023-03-11T19:03:36.399Z,55.43
2023-03-11T19:06:03.425Z,55.30
2023-03-11T19:08:30.639Z,55.27
2023-03-11T19:10:57.413Z,55.41
2023-03-11T19:13:26.572Z,55.28
2023-03-11T19:16:00.456Z,55.15
2023-03-11T19:18:27.227Z,55.06
2023-03-11T19:21:01.450Z,54.95
2023-03-11T19:23:28.704Z,54.83
2023-03-11T19:26:03.090Z,56.26
2023-03-11T19:28:30.552Z,54.81
2023-03-11T19:30:58.801Z,55.37
2023-03-11T19:33:26.395Z,55.15
2023-03-11T19:35:55.456Z,55.26
2023-03-11T19:38:23.789Z,55.58
2023-03-11T19:41:01.801Z,55.27
2023-03-11T19:43:28.859Z,55.60
2023-03-11T19:45:55.677Z,55.66
2023-03-11T19:48:22.654Z,55.66
2023-03-11T19:50:50.977Z,55.88
2023-03-11T19:53:18.543Z,55.82
2023-03-11T19:55:50.368Z,55.61
2023-03-11T19:58:17.276Z,55.88
2023-03-11T20:00:44.858Z,56.07
2023-03-11T20:03:12.876Z,55.99
2023-03-11T20:05:41.589Z,55.97
2023-03-11T20:08:09.283Z,55.87
2023-03-11T20:10:41.130Z,55.92
2023-03-11T20:13:08.313Z,55.86
2023-03-11T20:15:37.022Z,55.99
2023-03-11T20:18:06.237Z,55.82
2023-03-11T20:20:34.479Z,55.47
2023-03-11T20:23:02.132Z,55.31
2023-03-11T20:25:32.537Z,55.55
2023-03-11T20:28:00.237Z,55.56
2023-03-11T20:30:28.644Z,55.26
2023-03-11T20:32:55.794Z,55.05
2023-03-11T20:35:23.344Z,54.95
2023-03-11T20:37:50.197Z,54.82
2023-03-11T20:40:18.886Z,54.81
2023-03-11T20:42:47.305Z,54.88
2023-03-11T20:45:21.995Z,54.89
2023-03-11T20:47:50.878Z,54.86
2023-03-11T20:50:17.846Z,54.88
2023-03-11T20:52:44.770Z,54.83
2023-03-11T20:55:15.184Z,54.88
2023-03-11T20:57:42.217Z,54.60
2023-03-11T21:00:12.084Z,54.73
2023-03-11T21:02:40.262Z,54.69
2023-03-11T21:05:08.560Z,54.62
2023-03-11T21:07:35.774Z,54.63
2023-03-11T21:10:06.678Z,54.78
2023-03-11T21:12:33.726Z,54.88
2023-03-11T21:15:00.956Z,55.03
2023-03-11T21:17:27.940Z,54.81
2023-03-11T21:19:54.704Z,54.67
2023-03-11T21:22:21.594Z,55.08
2023-03-11T21:24:55.412Z,55.12
2023-03-11T21:27:26.576Z,55.44
2023-03-11T21:29:58.078Z,55.90
2023-03-11T21:32:27.244Z,55.55
2023-03-11T21:35:00.948Z,55.65
2023-03-11T21:37:28.656Z,55.85
2023-03-11T21:39:55.711Z,55.75
2023-03-11T21:42:22.521Z,56.30
2023-03-11T21:44:51.418Z,56.05
2023-03-11T21:47:19.587Z,56.11
2023-03-11T21:49:46.528Z,56.15
2023-03-11T21:52:13.570Z,56.27
2023-03-11T21:54:40.465Z,56.17
2023-03-11T21:57:07.378Z,56.13
2023-03-11T21:59:34.342Z,56.32
2023-03-11T22:02:03.271Z,56.36
2023-03-11T22:04:31.566Z,56.15
2023-03-11T22:06:58.556Z,56.29
2023-03-11T22:09:26.353Z,56.13
2023-03-11T22:11:53.591Z,56.21
2023-03-11T22:14:20.579Z,55.82
2023-03-11T22:16:47.654Z,55.41
2023-03-11T22:19:14.663Z,55.73
2023-03-11T22:21:42.100Z,55.45
2023-03-11T22:24:09.045Z,55.25
2023-03-11T22:26:35.829Z,55.17
2023-03-11T22:29:04.062Z,54.96
2023-03-11T22:31:31.448Z,54.48
2023-03-11T22:33:58.336Z,54.69
2023-03-11T22:36:25.368Z,54.90
2023-03-11T22:38:52.106Z,55.23
2023-03-11T22:41:20.340Z,55.22
2023-03-11T22:43:47.477Z,55.05
2023-03-11T22:46:14.663Z,54.94
2023-03-11T22:48:41.498Z,54.83
2023-03-11T22:51:08.418Z,55.03
2023-03-11T22:53:35.572Z,54.97
2023-03-11T22:56:09.543Z,54.94
2023-03-11T22:58:36.474Z,54.72
2023-03-11T23:01:04.153Z,54.57
2023-03-11T23:03:33.377Z,54.50
2023-03-11T23:06:01.850Z,54.64
2023-03-11T23:08:29.548Z,54.70
2023-03-11T23:10:56.688Z,54.55
2023-03-11T23:13:23.446Z,54.93
2023-03-11T23:15:50.239Z,54.81
2023-03-11T23:18:17.103Z,54.56
2023-03-11T23:20:44.806Z,54.92
2023-03-11T23:23:13.314Z,55.03
2023-03-11T23:25:41.543Z,54.79
2023-03-11T23:28:08.973Z,54.74
2023-03-11T23:30:36.213Z,54.65
2023-03-11T23:33:03.292Z,54.81
2023-03-11T23:35:31.199Z,55.70
2023-03-11T23:37:58.159Z,56.03
2023-03-11T23:40:25.312Z,55.79
2023-03-11T23:42:52.460Z,56.08
2023-03-11T23:45:19.350Z,56.14
2023-03-11T23:47:46.166Z,56.25
2023-03-11T23:50:12.995Z,56.54
2023-03-11T23:52:39.798Z,56.49
2023-03-11T23:55:07.352Z,56.60
2023-03-11T23:57:37.825Z,56.49
